Terminal Aerodrome Forecast
Issued by NWS

Home | Current Version | Previous Version | Text Only | Print | Product List | Glossary On
Versions: 1 2 3 4 5 6 7 8 9 10 11 12 13 14 15 16 17 18 19
587
FTUS44 KLZK 282102 AAA
TAFLLQ
TAF AMD
KLLQ 282102Z 2821/2918 19012G24KT P6SM SCT025 BKN035
     FM290100 16010G18KT P6SM SCT015 OVC025
     FM290700 15010KT P6SM SCT007 OVC012=

USA.gov is the U.S. government's official web portal to all federal, state and local government web resources and services.